Time;durP1;ratioP1;P1;durP2;ratioP2;P2;SDS_P1;SDS_P2;PMS_P1;PMS_P2;Temp;Humidity;BMP_temperature;BMP_pressure;BME280_temperature;BME280_humidity;BME280_pressure;Samples;Min_cycle;Max_cycle;Signal;HPM_P1;HPM_P2
2022/09/27 00:00:07;;;;;;;1.23;1.10;;;;;;;11.87;67.24;99115.63;7398741;19;20019;-71
2022/09/27 00:02:38;;;;;;;2.13;1.40;;;;;;;11.84;67.23;99107.91;7400045;19;20516;-70
2022/09/27 00:05:07;;;;;;;3.88;1.70;;;;;;;11.88;67.16;99122.59;7399946;19;20500;-71
2022/09/27 00:07:37;;;;;;;2.33;1.05;;;;;;;11.86;67.21;99102.56;7400217;19;20037;-70
2022/09/27 00:10:06;;;;;;;2.35;1.23;;;;;;;11.85;67.25;99099.13;7397849;19;20481;-69
2022/09/27 00:12:34;;;;;;;1.90;1.23;;;;;;;11.83;67.26;99095.72;7399981;19;20040;-70
2022/09/27 00:15:03;;;;;;;2.60;1.02;;;;;;;11.83;67.20;99098.34;7399601;19;20370;-70
2022/09/27 00:17:42;;;;;;;6.38;1.67;;;;;;;11.83;67.46;99095.72;7399869;19;20383;-70
2022/09/27 00:20:11;;;;;;;1.30;1.10;;;;;;;11.83;67.42;99090.44;7398213;19;20023;-70
2022/09/27 00:22:40;;;;;;;3.30;1.33;;;;;;;11.83;67.29;99092.25;7397445;19;20022;-69
2022/09/27 00:25:09;;;;;;;1.88;1.10;;;;;;;11.83;67.45;99085.19;7399723;19;20019;-69
2022/09/27 00:27:38;;;;;;;1.00;0.90;;;;;;;11.83;67.31;99087.00;7399717;19;20362;-70
2022/09/27 00:30:07;;;;;;;1.33;0.93;;;;;;;11.82;67.41;99088.75;7397333;19;20014;-70
2022/09/27 00:32:43;;;;;;;3.03;1.02;;;;;;;11.83;67.39;99077.31;7397125;19;20033;-69
2022/09/27 00:35:35;;;;;;;1.73;1.10;;;;;;;11.84;67.26;99075.53;7399379;19;20491;-69
2022/09/27 00:38:05;;;;;;;2.05;1.13;;;;;;;11.85;67.21;99077.22;7399019;19;20384;-69
2022/09/27 00:40:33;;;;;;;1.65;0.90;;;;;;;11.85;67.12;99071.97;7396689;19;20010;-69
2022/09/27 00:43:02;;;;;;;1.65;1.00;;;;;;;11.85;67.26;99067.59;7398815;19;20381;-72
2022/09/27 00:45:30;;;;;;;3.38;1.17;;;;;;;11.86;67.09;99066.63;7396687;19;20018;-71
2022/09/27 00:48:02;;;;;;;1.60;1.10;;;;;;;11.86;67.24;99058.75;7398987;19;20023;-72
2022/09/27 00:50:38;;;;;;;1.90;1.27;;;;;;;11.88;67.11;99056.06;7396529;19;20015;-73
2022/09/27 00:53:14;;;;;;;2.67;1.25;;;;;;;11.88;67.52;99048.16;7399408;19;20010;-72
2022/09/27 00:55:59;;;;;;;3.08;1.77;;;;;;;11.89;67.24;99052.47;7396453;19;20010;-72
2022/09/27 00:58:31;;;;;;;3.03;1.30;;;;;;;11.89;67.29;99047.22;7397287;19;20014;-71
2022/09/27 01:01:09;;;;;;;1.83;1.05;;;;;;;11.90;67.29;99041.91;7400898;19;20014;-72
2022/09/27 01:03:44;;;;;;;2.53;1.42;;;;;;;11.92;67.14;99038.31;7400117;19;20018;-71
2022/09/27 01:06:16;;;;;;;1.85;1.00;;;;;;;11.92;67.23;99030.44;7398751;19;20011;-72
2022/09/27 01:08:44;;;;;;;1.40;0.85;;;;;;;11.93;67.16;99025.13;7397605;19;20018;-71
2022/09/27 01:11:27;;;;;;;1.23;0.80;;;;;;;11.93;67.27;99030.38;7395729;19;20014;-72
2022/09/27 01:14:13;;;;;;;1.77;0.95;;;;;;;11.93;67.25;99019.84;7399229;19;20029;-72
2022/09/27 01:16:52;;;;;;;2.28;0.90;;;;;;;11.94;67.01;99013.66;7397592;19;20034;-72
2022/09/27 01:19:45;;;;;;;2.15;1.00;;;;;;;11.95;67.24;99004.84;7397491;19;20025;-72
2022/09/27 01:22:20;;;;;;;2.92;1.33;;;;;;;11.96;67.05;99006.56;7395455;19;20014;-72
2022/09/27 01:25:02;;;;;;;4.32;1.00;;;;;;;11.96;67.10;99006.56;7395917;19;20375;-72
2022/09/27 01:28:13;;;;;;;1.92;1.20;;;;;;;11.96;67.19;98998.69;7397625;19;20036;-72
2022/09/27 01:30:49;;;;;;;1.67;1.00;;;;;;;11.98;67.09;98982.81;7395145;19;20515;-72
2022/09/27 01:33:40;;;;;;;2.70;1.00;;;;;;;11.97;67.25;98989.03;7397914;19;20024;-72
2022/09/27 01:36:29;;;;;;;2.13;1.20;;;;;;;11.98;67.26;98985.44;7397736;19;20032;-72
2022/09/27 01:39:09;;;;;;;4.22;1.08;;;;;;;11.97;67.30;98982.00;7396618;19;20014;-71
2022/09/27 01:41:43;;;;;;;3.53;1.20;;;;;;;11.96;67.07;98968.94;7397520;19;20022;-71
2022/09/27 01:44:18;;;;;;;2.40;1.25;;;;;;;12.00;67.14;98973.91;7397465;19;20011;-72
2022/09/27 01:46:54;;;;;;;1.38;1.15;;;;;;;12.01;67.01;98969.53;7396672;19;20022;-71
2022/09/27 01:49:29;;;;;;;1.90;1.23;;;;;;;11.99;67.36;98964.38;7396427;19;20023;-72
2022/09/27 01:52:03;;;;;;;2.85;1.20;;;;;;;12.01;67.16;98969.53;7395301;19;20040;-72
2022/09/27 01:54:38;;;;;;;3.75;1.10;;;;;;;12.00;67.14;98952.06;7396342;19;20014;-72
2022/09/27 01:57:09;;;;;;;2.38;1.00;;;;;;;12.00;67.10;98958.16;7394711;19;20020;-72
2022/09/27 01:59:47;;;;;;;3.80;1.88;;;;;;;12.00;67.12;98952.88;7395377;19;20027;-72
2022/09/27 02:02:23;;;;;;;2.85;1.30;;;;;;;12.00;67.04;98950.25;7397010;19;20040;-72
2022/09/27 02:04:57;;;;;;;2.30;1.20;;;;;;;12.01;66.82;98951.97;7396948;19;20021;-72
2022/09/27 02:07:31;;;;;;;4.88;1.25;;;;;;;12.00;66.85;98944.16;7396889;19;20453;-73
2022/09/27 02:10:01;;;;;;;;;;;;;;;12.00;66.96;98944.16;7395765;19;20011;-72
2022/09/27 02:12:34;;;;;;;2.78;1.33;;;;;;;11.99;66.78;98939.84;7396412;19;19940;-72
2022/09/27 02:15:07;;;;;;;2.28;1.13;;;;;;;11.97;66.87;98939.09;7395731;19;20032;-72
2022/09/27 02:17:46;;;;;;;2.42;1.60;;;;;;;11.97;67.20;98928.59;7397267;19;20011;-72
2022/09/27 02:20:21;;;;;;;3.05;1.08;;;;;;;11.94;67.00;98926.09;7395842;19;20044;-73
2022/09/27 02:22:55;;;;;;;2.35;1.20;;;;;;;11.90;67.11;98922.78;7396548;19;20011;-71
2022/09/27 02:25:28;;;;;;;2.47;1.58;;;;;;;11.94;67.16;98928.72;7395821;19;20019;-72
2022/09/27 02:28:04;;;;;;;2.88;1.40;;;;;;;11.93;67.45;98930.50;7394017;19;20015;-73
2022/09/27 02:30:33;;;;;;;2.55;1.30;;;;;;;11.90;67.54;98918.38;7393556;19;20011;-73
2022/09/27 02:33:05;;;;;;;2.65;1.70;;;;;;;11.89;67.99;98927.19;7395183;19;20488;-71
2022/09/27 02:35:35;;;;;;;2.20;1.33;;;;;;;11.88;68.14;98915.00;7395719;19;20115;-72
2022/09/27 02:38:05;;;;;;;2.22;1.50;;;;;;;11.82;68.21;98910.06;7395760;19;20040;-72
2022/09/27 02:40:38;;;;;;;2.17;1.42;;;;;;;11.83;68.87;98913.56;7393197;19;20032;-72
2022/09/27 02:43:07;;;;;;;2.78;1.50;;;;;;;11.80;68.98;98911.94;7395532;19;20074;-71
2022/09/27 02:45:47;;;;;;;3.92;1.58;;;;;;;11.77;69.46;98909.50;7395233;19;20052;-72
2022/09/27 02:48:27;;;;;;;2.75;1.90;;;;;;;11.73;69.62;98907.97;7395841;19;20019;-71
2022/09/27 02:51:23;;;;;;;6.32;2.10;;;;;;;11.70;70.87;98909.00;7393985;19;20015;-71
2022/09/27 02:54:04;;;;;;;5.60;2.38;;;;;;;11.65;71.37;98905.78;7395107;19;20591;-71
2022/09/27 02:56:43;;;;;;;3.35;1.70;;;;;;;11.60;71.12;98907.81;7393693;19;20477;-71
2022/09/27 02:59:20;;;;;;;4.95;2.22;;;;;;;11.55;71.48;98905.44;7394562;19;20048;-71
2022/09/27 03:01:56;;;;;;;4.85;2.58;;;;;;;11.50;71.83;98902.22;7394843;19;20014;-70
2022/09/27 03:04:33;;;;;;;3.60;2.00;;;;;;;11.46;72.67;98894.59;7394217;19;20014;-72
2022/09/27 03:07:02;;;;;;;2.63;1.77;;;;;;;11.41;72.65;98897.44;7394990;19;20014;-73
2022/09/27 03:09:42;;;;;;;2.10;1.90;;;;;;;11.35;73.09;98892.56;7393639;19;20040;-72
2022/09/27 03:12:11;;;;;;;2.50;1.83;;;;;;;11.32;73.62;98895.34;7392238;19;20017;-72
2022/09/27 03:14:39;;;;;;;3.83;1.77;;;;;;;11.27;73.70;98900.81;7394328;19;20529;-72
2022/09/27 03:17:08;;;;;;;6.35;2.10;;;;;;;11.23;74.25;98900.19;7394363;19;20015;-72
2022/09/27 03:19:39;;;;;;;4.30;1.80;;;;;;;11.19;74.41;98888.13;7391881;19;20011;-71
2022/09/27 03:22:08;;;;;;;3.20;1.80;;;;;;;11.17;74.88;98889.13;7395188;19;20011;-71
2022/09/27 03:24:36;;;;;;;4.63;1.95;;;;;;;11.14;75.26;98887.53;7401300;19;20010;-72
2022/09/27 03:27:05;;;;;;;1.95;1.73;;;;;;;11.12;75.25;98883.28;7401512;19;20014;-71
2022/09/27 03:29:34;;;;;;;4.22;2.90;;;;;;;11.08;75.39;98880.84;7400150;19;20022;-72
2022/09/27 03:32:03;;;;;;;2.92;1.83;;;;;;;11.07;75.57;98873.06;7398890;19;20014;-72
2022/09/27 03:34:32;;;;;;;2.53;1.65;;;;;;;11.06;75.79;98872.19;7400867;19;20023;-71
2022/09/27 03:37:03;;;;;;;4.53;1.95;;;;;;;11.02;76.06;98870.66;7400597;19;20379;-72
2022/09/27 03:39:32;;;;;;;2.05;1.40;;;;;;;11.03;76.18;98872.38;7400434;19;20022;-72
2022/09/27 03:42:00;;;;;;;3.13;2.00;;;;;;;11.03;76.21;98875.00;7400489;19;20011;-72
2022/09/27 03:44:29;;;;;;;3.25;2.00;;;;;;;11.02;76.43;98868.03;7400328;19;20014;-72
2022/09/27 03:46:58;;;;;;;2.88;1.80;;;;;;;11.00;76.66;98867.28;7398254;19;20011;-71
2022/09/27 03:49:26;;;;;;;2.97;1.88;;;;;;;10.97;76.78;98871.84;7399449;19;20019;-72
2022/09/27 03:51:55;;;;;;;3.20;1.83;;;;;;;10.96;77.36;98870.16;7398840;19;20014;-72
2022/09/27 03:54:26;;;;;;;2.55;1.98;;;;;;;10.92;77.83;98862.44;7401071;19;20015;-72
2022/09/27 03:56:55;;;;;;;2.33;2.05;;;;;;;10.90;77.89;98855.56;7398877;19;20011;-72
2022/09/27 03:59:23;;;;;;;3.25;2.10;;;;;;;10.87;78.07;98853.97;7399274;19;20048;-72
2022/09/27 04:01:52;;;;;;;2.53;2.00;;;;;;;10.84;78.35;98856.75;7399880;19;20015;-72
2022/09/27 04:04:21;;;;;;;3.03;2.45;;;;;;;10.83;78.39;98854.19;7399700;19;20488;-72
2022/09/27 04:06:49;;;;;;;1.98;1.77;;;;;;;10.80;78.61;98849.97;7399683;19;20011;-71
2022/09/27 04:09:18;;;;;;;3.08;2.30;;;;;;;10.77;78.95;98855.38;7398688;19;20486;-72
2022/09/27 04:11:50;;;;;;;4.25;2.50;;;;;;;10.74;79.35;98851.16;7398231;19;20056;-72
2022/09/27 04:14:18;;;;;;;3.35;2.50;;;;;;;10.72;79.46;98847.75;7399512;19;20078;-72
2022/09/27 04:16:47;;;;;;;2.85;2.28;;;;;;;10.67;79.72;98838.44;7399271;19;20070;-71
2022/09/27 04:19:16;;;;;;;3.05;2.22;;;;;;;10.68;80.10;98850.59;7398625;19;20018;-71
2022/09/27 04:21:45;;;;;;;4.53;2.13;;;;;;;10.66;80.21;98844.63;7399198;19;20026;-71
2022/09/27 04:24:13;;;;;;;3.78;2.47;;;;;;;10.61;80.61;98844.84;7399560;19;20044;-70
2022/09/27 04:26:42;;;;;;;3.60;2.42;;;;;;;10.61;81.04;98839.59;7399345;19;20028;-71
2022/09/27 04:29:13;;;;;;;4.43;2.75;;;;;;;10.59;81.20;98852.81;7398507;19;20018;-72
2022/09/27 04:31:42;;;;;;;3.33;2.38;;;;;;;10.56;81.27;98842.47;7397921;19;20018;-72
2022/09/27 04:34:11;;;;;;;4.05;2.50;;;;;;;10.55;81.58;98840.78;7395487;19;20018;-71
2022/09/27 04:36:37;;;;;;;2.35;2.15;;;;;;;10.53;81.63;98841.78;7395991;19;20011;-71
2022/09/27 04:39:07;;;;;;;2.38;2.13;;;;;;;10.52;81.88;98843.53;7397842;19;20427;-71
2022/09/27 04:41:37;;;;;;;4.97;2.40;;;;;;;10.52;81.97;98840.94;7398847;19;20018;-73
2022/09/27 04:44:06;;;;;;;4.53;2.42;;;;;;;10.51;82.24;98841.00;7398805;19;20056;-72
2022/09/27 04:46:37;;;;;;;3.55;2.80;;;;;;;10.50;82.69;98848.03;7396605;19;20014;-71
2022/09/27 04:49:05;;;;;;;6.43;2.45;;;;;;;10.47;82.64;98853.44;7397948;19;20362;-73
2022/09/27 04:51:34;;;;;;;4.85;2.20;;;;;;;10.45;82.84;98851.81;7396168;19;20014;-72
2022/09/27 04:54:03;;;;;;;2.65;2.35;;;;;;;10.43;83.44;98849.28;7398955;19;20036;-71
2022/09/27 04:56:32;;;;;;;6.75;2.80;;;;;;;10.40;83.63;98852.03;7397426;19;20054;-71
2022/09/27 04:59:00;;;;;;;3.10;2.13;;;;;;;10.35;84.17;98846.16;7397696;19;20018;-70
2022/09/27 05:01:29;;;;;;;4.05;2.70;;;;;;;10.35;84.04;98852.25;7397293;19;20040;-71
2022/09/27 05:04:00;;;;;;;3.25;2.55;;;;;;;10.32;84.56;98843.69;7395952;19;20010;-70
2022/09/27 05:06:29;;;;;;;4.22;2.50;;;;;;;10.28;84.58;98840.38;7394591;19;20011;-71
2022/09/27 05:08:57;;;;;;;3.35;2.40;;;;;;;10.26;85.23;98842.22;7395180;19;20015;-73
2022/09/27 05:11:26;;;;;;;2.53;2.17;;;;;;;10.26;84.88;98845.72;7395057;19;20384;-72
2022/09/27 05:13:55;;;;;;;2.58;2.20;;;;;;;10.23;85.04;98843.22;7397847;19;20052;-70
2022/09/27 05:16:24;;;;;;;2.95;2.30;;;;;;;10.23;85.06;98840.63;7397364;19;20011;-72
2022/09/27 05:18:52;;;;;;;2.63;2.20;;;;;;;10.23;85.82;98851.09;7396540;19;20015;-72
2022/09/27 05:21:24;;;;;;;2.33;2.10;;;;;;;10.22;85.69;98843.31;7397486;19;20018;-71
2022/09/27 05:23:52;;;;;;;5.47;2.45;;;;;;;10.20;86.27;98842.56;7396269;19;20014;-71
2022/09/27 05:26:21;;;;;;;4.13;2.38;;;;;;;10.17;85.77;98840.91;7397066;19;20011;-72
2022/09/27 05:28:50;;;;;;;2.80;2.30;;;;;;;10.17;86.15;98842.69;7398505;19;20015;-72
2022/09/27 05:31:18;;;;;;;2.58;2.30;;;;;;;10.15;86.39;98842.78;7396719;19;20052;-72
2022/09/27 05:33:47;;;;;;;4.07;2.20;;;;;;;10.16;86.70;98844.50;7396299;19;20040;-73
2022/09/27 05:36:15;;;;;;;3.78;2.50;;;;;;;10.14;86.43;98841.09;7396058;19;20032;-72
2022/09/27 05:38:47;;;;;;;3.95;2.65;;;;;;;10.15;86.64;98840.16;7396142;19;20021;-72
2022/09/27 05:41:15;;;;;;;4.25;2.33;;;;;;;10.14;86.39;98838.47;7395098;19;20017;-72
2022/09/27 05:43:45;;;;;;;3.20;2.53;;;;;;;10.14;87.11;98838.47;7396434;19;20010;-72
2022/09/27 05:46:14;;;;;;;3.38;2.40;;;;;;;10.15;87.13;98840.16;7395714;19;20017;-72
2022/09/27 05:48:42;;;;;;;4.60;2.60;;;;;;;10.13;87.09;98836.75;7396867;19;20014;-72
2022/09/27 05:51:11;;;;;;;5.65;3.03;;;;;;;10.13;87.08;98844.63;7396189;19;20034;-71
2022/09/27 05:53:49;;;;;;;3.15;2.53;;;;;;;10.14;87.45;98841.09;7396306;19;20032;-72
2022/09/27 05:56:18;;;;;;;3.67;2.85;;;;;;;10.13;87.46;98836.75;7396129;19;20011;-73
2022/09/27 05:58:47;;;;;;;3.05;2.50;;;;;;;10.13;87.18;98836.75;7397020;19;20015;-72
2022/09/27 06:01:16;;;;;;;6.63;2.97;;;;;;;10.14;87.65;98837.63;7394257;19;20010;-73
2022/09/27 06:03:45;;;;;;;3.05;2.50;;;;;;;10.13;88.09;98839.38;7393409;19;20007;-72
2022/09/27 06:06:14;;;;;;;5.22;3.00;;;;;;;10.14;88.01;98835.00;7394765;19;20031;-72
2022/09/27 06:08:44;;;;;;;5.32;2.75;;;;;;;10.14;88.13;98837.63;7396650;19;20014;-72
2022/09/27 06:11:15;;;;;;;4.10;2.90;;;;;;;10.15;88.25;98831.44;7394985;19;20493;-73
2022/09/27 06:13:44;;;;;;;3.80;2.90;;;;;;;10.14;88.24;98835.00;7395817;19;20018;-73
2022/09/27 06:16:13;;;;;;;4.32;3.35;;;;;;;10.13;88.42;98834.16;7396154;19;20026;-73
2022/09/27 06:18:44;;;;;;;7.55;5.03;;;;;;;10.14;88.60;98841.09;7396070;19;20040;-72
2022/09/27 06:21:12;;;;;;;11.20;6.90;;;;;;;10.13;88.67;98839.38;7396120;19;20041;-73
2022/09/27 06:23:41;;;;;;;4.53;3.63;;;;;;;10.11;88.42;98833.41;7394696;19;20010;-72
2022/09/27 06:26:10;;;;;;;4.07;3.00;;;;;;;10.14;88.95;98838.47;7395256;19;20007;-73
2022/09/27 06:28:41;;;;;;;3.78;2.97;;;;;;;10.12;89.18;98835.06;7395203;19;20468;-72
2022/09/27 06:31:11;;;;;;;3.85;2.45;;;;;;;10.13;89.66;98842.00;7395747;19;20018;-74
2022/09/27 06:33:39;;;;;;;4.10;2.92;;;;;;;10.14;89.72;98843.72;7394807;19;20081;-73
2022/09/27 06:36:09;;;;;;;3.97;2.97;;;;;;;10.15;89.58;98836.69;7397552;19;20018;-73
2022/09/27 06:38:38;;;;;;;3.00;2.60;;;;;;;10.14;90.06;98840.25;7394877;19;20032;-72
2022/09/27 06:41:15;;;;;;;4.65;3.42;;;;;;;10.15;90.01;98845.41;7395393;19;20014;-73
2022/09/27 06:43:46;;;;;;;5.60;2.85;;;;;;;10.15;89.82;98842.78;7396014;19;20011;-73
2022/09/27 06:46:15;;;;;;;3.17;2.50;;;;;;;10.16;90.26;98839.25;7395332;19;20497;-74
2022/09/27 06:48:43;;;;;;;2.95;2.60;;;;;;;10.15;90.24;98837.53;7394968;19;20539;-73
2022/09/27 06:51:12;;;;;;;4.32;2.45;;;;;;;10.19;90.26;98839.09;7394466;19;20485;-73
2022/09/27 06:53:40;;;;;;;3.58;2.75;;;;;;;10.22;90.84;98840.69;7392656;19;20018;-74
2022/09/27 06:56:09;;;;;;;3.17;2.78;;;;;;;10.25;90.97;98835.31;7393673;19;20033;-74
2022/09/27 07:01:21;;;;;;;3.03;2.67;;;;;;;10.26;90.81;98837.84;7402575;19;20037;-74
2022/09/27 07:03:52;;;;;;;3.33;2.47;;;;;;;10.28;90.88;98835.97;7402337;19;20039;-74
2022/09/27 07:06:23;;;;;;;3.85;3.25;;;;;;;10.30;90.85;98832.44;7401663;19;20007;-74
2022/09/27 07:08:53;;;;;;;3.97;2.72;;;;;;;10.33;91.44;98834.91;7402285;19;20015;-74
2022/09/27 07:11:24;;;;;;;3.15;2.53;;;;;;;10.36;91.14;98834.78;7401581;19;20035;-74
2022/09/27 07:13:55;;;;;;;4.43;2.63;;;;;;;10.40;91.18;98831.06;7404262;19;20011;-74
2022/09/27 07:16:26;;;;;;;3.90;3.03;;;;;;;10.44;91.13;98837.88;7402836;19;20453;-75
2022/09/27 07:18:55;;;;;;;4.32;3.10;;;;;;;10.48;91.28;98839.41;7401183;19;20514;-75
2022/09/27 07:21:23;;;;;;;5.85;3.17;;;;;;;10.53;90.95;98841.78;7401830;19;20223;-73
2022/09/27 07:23:52;;;;;;;4.40;3.55;;;;;;;10.56;90.92;98842.47;7402273;19;20379;-75
2022/09/27 07:26:21;;;;;;;5.38;3.20;;;;;;;10.60;90.90;98840.53;7401809;19;20037;-73
2022/09/27 07:28:52;;;;;;;3.00;2.70;;;;;;;10.66;90.98;98842.00;7401492;19;20040;-73
2022/09/27 07:31:21;;;;;;;3.63;2.92;;;;;;;10.70;91.16;98838.28;7402215;19;20099;-75
2022/09/27 07:33:52;;;;;;;4.75;2.60;;;;;;;10.75;91.00;98850.22;7398543;19;20018;-75
2022/09/27 07:36:21;;;;;;;3.38;2.47;;;;;;;10.79;90.85;98848.25;7401140;19;20480;-74
2022/09/27 07:38:50;;;;;;;2.70;2.50;;;;;;;10.83;91.16;98852.44;7400443;19;20018;-75
2022/09/27 07:41:18;;;;;;;4.05;2.72;;;;;;;10.87;90.73;98847.88;7400969;19;20022;-74
2022/09/27 07:43:47;;;;;;;3.22;2.40;;;;;;;10.90;90.58;98853.78;7401083;19;20036;-74
2022/09/27 07:46:16;;;;;;;2.75;2.22;;;;;;;10.94;90.54;98853.63;7401408;19;20010;-74
2022/09/27 07:48:45;;;;;;;2.55;2.13;;;;;;;10.99;90.38;98857.69;7400399;19;20015;-72
2022/09/27 07:51:16;;;;;;;3.08;2.78;;;;;;;11.03;90.22;98843.50;7400266;19;20036;-73
2022/09/27 07:53:45;;;;;;;5.00;3.40;;;;;;;11.06;90.08;98839.88;7398824;19;20018;-73
2022/09/27 07:56:14;;;;;;;6.68;4.90;;;;;;;11.14;89.98;98845.53;7399396;19;20033;-74
2022/09/27 07:58:42;;;;;;;6.18;3.67;;;;;;;11.19;89.77;98842.66;7398611;19;20398;-73
2022/09/27 08:01:11;;;;;;;4.03;1.83;;;;;;;11.25;89.55;98844.97;7400102;19;20010;-73
2022/09/27 08:03:40;;;;;;;5.05;2.40;;;;;;;11.31;89.53;98846.38;7399932;19;20014;-73
2022/09/27 08:06:08;;;;;;;3.55;2.40;;;;;;;11.34;89.08;98848.84;7397869;19;20011;-73
2022/09/27 08:08:40;;;;;;;3.20;2.90;;;;;;;11.41;89.08;98855.44;7398857;19;20010;-72
2022/09/27 08:11:14;;;;;;;2.58;2.38;;;;;;;11.46;88.92;98855.19;7400118;19;20377;-74
2022/09/27 08:13:42;;;;;;;;;;;;;;;11.52;88.84;98847.81;7399157;19;20022;-72
2022/09/27 08:16:13;;;;;;;3.33;2.08;;;;;;;11.57;88.50;98855.44;7399532;19;19922;-72
2022/09/27 08:18:41;;;;;;;5.43;2.25;;;;;;;11.61;88.09;98856.97;7399899;19;20021;-72
2022/09/27 08:21:10;;;;;;;1.90;1.70;;;;;;;11.63;87.77;98860.34;7398939;19;20025;-74
2022/09/27 08:23:41;;;;;;;3.92;2.00;;;;;;;11.66;87.72;98875.09;7399022;19;20040;-73
2022/09/27 08:26:10;;;;;;;3.30;2.25;;;;;;;11.70;87.68;98871.34;7399647;19;20040;-73
2022/09/27 08:28:39;;;;;;;1.50;1.40;;;;;;;11.72;87.23;98869.50;7399809;19;20018;-72
2022/09/27 08:31:07;;;;;;;4.95;2.22;;;;;;;11.73;86.99;98869.41;7399179;19;20045;-72
2022/09/27 08:33:36;;;;;;;4.55;3.05;;;;;;;11.74;87.16;98865.00;7396875;19;20040;-72
2022/09/27 08:36:05;;;;;;;3.60;2.30;;;;;;;11.77;87.13;98867.47;7396196;19;20052;-72
2022/09/27 08:38:33;;;;;;;2.47;1.85;;;;;;;11.80;86.89;98867.28;7397918;19;20015;-72
2022/09/27 08:41:12;;;;;;;5.60;2.90;;;;;;;11.83;86.78;98872.38;7400968;19;20015;-73
2022/09/27 08:43:54;;;;;;;2.10;1.60;;;;;;;11.84;86.54;98867.94;7400669;19;20014;-73
2022/09/27 08:46:32;;;;;;;2.35;1.70;;;;;;;11.85;86.43;98873.13;7402977;19;20025;-73
2022/09/27 08:49:07;;;;;;;3.17;1.50;;;;;;;11.86;86.40;98866.91;7402216;19;20095;-72
2022/09/27 08:51:38;;;;;;;2.10;1.65;;;;;;;11.85;86.55;98862.63;7401706;19;20018;-73
2022/09/27 08:54:12;;;;;;;2.97;2.42;;;;;;;11.85;86.25;98873.13;7399349;19;20018;-73
2022/09/27 08:56:43;;;;;;;1.60;1.48;;;;;;;11.85;86.05;98873.13;7399481;19;20368;-73
2022/09/27 08:59:19;;;;;;;2.97;1.50;;;;;;;11.83;86.07;98872.38;7397478;19;20018;-73
2022/09/27 09:01:49;;;;;;;2.47;1.77;;;;;;;11.84;86.20;98878.44;7398445;19;20365;-73
2022/09/27 09:04:21;;;;;;;3.65;2.17;;;;;;;11.84;86.28;98879.31;7397996;19;20011;-73
2022/09/27 09:07:00;;;;;;;3.47;2.67;;;;;;;11.85;86.39;98880.16;7395911;19;20036;-73
2022/09/27 09:09:40;;;;;;;9.25;4.63;;;;;;;11.85;86.28;98880.16;7397133;19;20022;-73
2022/09/27 09:15:20;;;;;;;11.35;5.32;;;;;;;11.84;86.35;98868.81;7397490;19;20070;-73
2022/09/27 09:18:21;;;;;;;11.00;5.85;;;;;;;11.87;86.14;98862.53;7396024;19;20018;-72
2022/09/27 09:20:58;;;;;;;13.18;7.13;;;;;;;11.94;86.35;98865.66;7393390;19;20450;-73
2022/09/27 09:23:48;;;;;;;6.72;3.90;;;;;;;12.01;86.28;98869.66;7396737;19;20489;-72
2022/09/27 09:26:23;;;;;;;8.30;3.15;;;;;;;12.09;86.06;98862.16;7396849;19;20025;-73
2022/09/27 09:29:10;;;;;;;2.80;2.50;;;;;;;12.17;85.43;98859.94;7396798;19;20041;-71
2022/09/27 09:31:43;;;;;;;4.93;2.45;;;;;;;12.17;85.06;98852.06;7396982;19;20486;-72
2022/09/27 09:34:19;;;;;;;3.88;2.90;;;;;;;12.22;85.17;98857.88;7394983;19;20014;-72
2022/09/27 09:36:52;;;;;;;5.97;3.55;;;;;;;12.27;85.33;98867.28;7396476;19;20014;-72
2022/09/27 09:39:27;;;;;;;5.00;3.20;;;;;;;12.32;85.05;98860.81;7395929;19;20010;-72
2022/09/27 09:42:08;;;;;;;6.43;3.70;;;;;;;12.39;84.66;98862.13;7397196;19;20025;-72
2022/09/27 09:44:47;;;;;;;6.18;2.70;;;;;;;12.49;84.07;98862.44;7397634;19;20036;-72
2022/09/27 09:47:26;;;;;;;6.15;2.80;;;;;;;12.54;83.74;98862.19;7397656;19;20018;-72
2022/09/27 09:50:00;;;;;;;2.45;2.10;;;;;;;12.65;83.46;98859.75;7396208;19;20015;-72
2022/09/27 09:52:43;;;;;;;2.47;2.03;;;;;;;12.78;82.46;98862.47;7396357;19;20019;-72
2022/09/27 09:55:19;;;;;;;3.92;2.15;;;;;;;12.88;82.48;98853.06;7397537;19;20018;-75
2022/09/27 09:57:59;;;;;;;2.40;1.70;;;;;;;12.97;82.03;98859.56;7394967;19;20011;-72
2022/09/27 10:00:31;;;;;;;4.28;2.78;;;;;;;13.05;81.19;98859.06;7394789;19;20019;-71
2022/09/27 10:03:01;;;;;;;4.28;2.05;;;;;;;13.11;81.14;98850.78;7395524;19;20018;-74
2022/09/27 10:05:31;;;;;;;2.85;1.75;;;;;;;13.17;80.87;98850.41;7396684;19;20022;-71
2022/09/27 10:08:03;;;;;;;3.45;1.80;;;;;;;13.24;80.22;98850.88;7396077;19;20082;-71
2022/09/27 10:10:33;;;;;;;4.70;1.85;;;;;;;13.28;79.96;98848.88;7394124;19;20488;-70
2022/09/27 10:13:04;;;;;;;2.40;1.75;;;;;;;13.29;79.56;98848.78;7395274;19;20111;-72
2022/09/27 10:15:35;;;;;;;4.22;2.58;;;;;;;13.33;79.11;98852.06;7394718;19;20014;-72
2022/09/27 10:18:04;;;;;;;2.72;1.92;;;;;;;13.36;79.13;98844.00;7396593;19;20019;-71
2022/09/27 10:20:37;;;;;;;4.97;3.17;;;;;;;13.38;78.37;98847.38;7394624;19;20027;-71
2022/09/27 10:23:12;;;;;;;3.33;2.17;;;;;;;13.40;77.86;98844.69;7396125;19;20018;-71
2022/09/27 10:25:53;;;;;;;3.50;2.60;;;;;;;13.43;77.69;98840.03;7401062;19;20010;-72
2022/09/27 10:28:36;;;;;;;2.10;1.70;;;;;;;13.48;76.64;98847.66;7394887;19;20492;-71
2022/09/27 10:31:09;;;;;;;2.08;1.75;;;;;;;13.50;76.64;98835.25;7395161;19;20019;-72
2022/09/27 10:33:41;;;;;;;2.17;1.60;;;;;;;13.54;77.19;98833.25;7394593;19;20023;-72
2022/09/27 10:36:25;;;;;;;2.35;1.38;;;;;;;13.56;75.38;98841.88;7395153;19;20018;-72
2022/09/27 10:38:55;;;;;;;2.28;1.65;;;;;;;13.50;76.00;98835.25;7393938;19;20014;-71
2022/09/27 10:41:28;;;;;;;2.97;1.27;;;;;;;13.48;76.21;98835.34;7394367;19;20417;-72
2022/09/27 10:43:57;;;;;;;2.13;1.52;;;;;;;13.45;76.48;98840.78;7395315;19;20018;-71
2022/09/27 10:46:32;;;;;;;2.05;1.83;;;;;;;13.41;75.95;98841.94;7395340;19;20007;-71
2022/09/27 10:49:14;;;;;;;2.85;1.65;;;;;;;13.33;75.02;98834.50;7394232;19;20082;-75
2022/09/27 10:51:43;;;;;;;3.42;1.70;;;;;;;13.25;76.38;98846.47;7394184;19;20074;-72
2022/09/27 10:54:21;;;;;;;2.40;1.95;;;;;;;13.15;75.66;98859.34;7393525;19;20122;-73
2022/09/27 10:56:58;;;;;;;2.45;1.70;;;;;;;12.96;78.44;98881.53;7394391;19;20010;-75
2022/09/27 10:59:29;;;;;;;2.70;2.50;;;;;;;12.71;80.60;98874.31;7393641;19;20500;-75
2022/09/27 11:02:01;;;;;;;3.30;2.50;;;;;;;12.35;84.65;98872.94;7395209;19;20560;-78
2022/09/27 11:04:32;;;;;;;4.25;3.38;;;;;;;12.00;84.99;98875.84;7400136;19;20361;-79
2022/09/27 11:07:19;;;;;;;5.00;3.90;;;;;;;11.70;88.07;98872.22;7398090;19;20351;-76
2022/09/27 11:09:51;;;;;;;5.63;4.50;;;;;;;11.52;88.51;98876.69;7393536;19;20078;-76
2022/09/27 11:12:21;;;;;;;5.47;4.97;;;;;;;11.41;88.86;98879.94;7394932;19;20022;-76
2022/09/27 11:14:59;;;;;;;4.30;3.90;;;;;;;11.28;93.38;98892.03;7394592;19;20040;-78
2022/09/27 11:17:37;;;;;;;4.07;3.50;;;;;;;11.18;92.70;98923.16;7396321;19;20023;-76
2022/09/27 11:20:18;;;;;;;2.30;1.70;;;;;;;10.95;90.52;98910.44;7394107;19;20035;-76
2022/09/27 11:23:20;;;;;;;2.72;1.20;;;;;;;10.69;91.00;98917.88;7394326;19;20034;-76
2022/09/27 11:26:06;;;;;;;1.50;1.35;;;;;;;10.44;91.05;98916.53;7394668;19;20028;-75
2022/09/27 11:28:49;;;;;;;1.50;1.30;;;;;;;10.27;91.88;98918.19;7393550;19;20025;-76
2022/09/27 11:31:30;;;;;;;1.50;1.40;;;;;;;10.17;93.00;98918.69;7395182;19;20047;-74
2022/09/27 11:34:27;;;;;;;2.92;2.05;;;;;;;10.08;93.56;98920.88;7393052;19;20018;-72
2022/09/27 11:37:13;;;;;;;3.95;1.90;;;;;;;10.04;93.66;98924.53;7392921;19;20018;-71
2022/09/27 11:39:58;;;;;;;2.88;2.55;;;;;;;10.05;93.81;98921.00;7391240;19;20036;-70
2022/09/27 11:42:50;;;;;;;3.47;2.95;;;;;;;10.08;94.50;98918.25;7390851;19;20052;-70
2022/09/27 11:45:36;;;;;;;3.88;3.13;;;;;;;10.12;94.64;98926.78;7400348;19;20018;-70
2022/09/27 11:48:19;;;;;;;6.53;3.60;;;;;;;10.15;94.76;98924.03;7400180;19;20040;-70
2022/09/27 11:51:02;;;;;;;4.45;4.05;;;;;;;10.19;93.93;98925.56;7398237;19;20040;-69
2022/09/27 11:53:48;;;;;;;4.35;3.58;;;;;;;10.25;94.68;98911.31;7397816;19;20513;-72
2022/09/27 11:56:28;;;;;;;4.13;3.72;;;;;;;10.33;94.42;98914.41;7400883;19;20022;-71
2022/09/27 11:59:19;;;;;;;5.15;4.38;;;;;;;10.41;94.28;98911.41;7397606;19;20019;-70
2022/09/27 12:01:56;;;;;;;5.20;4.63;;;;;;;10.53;94.61;98918.66;7400096;19;20010;-72
2022/09/27 12:04:50;;;;;;;4.43;4.03;;;;;;;10.65;94.22;98918.97;7400686;19;20085;-72
2022/09/27 12:07:28;;;;;;;4.80;4.40;;;;;;;10.77;94.53;98920.97;7397769;19;20015;-71